WXM80 ListenWXM80 Stop

You find our weather info also at:

UK Metoffice

WeatherCloud

Weather Underground

Northeastern Weather Network

AWEKAS

Citizen Weather Observer Program (CWOP)

HAMweather, WeatherForYou, PWS Weather


Weather Underground History page Text

Daily Summary for October 29, 2017 Units:  Both    English   Metric
« Previous Day
Next Day »
Daily Weekly Monthly Yearly Custom
  High: Low: Average:
Temperature: 67.6 °F /  19.8 °C 61.8 °F /  16.6 °C 63.9 °F /  17.7 °C
Dew Point: 67.1 °F /  19.5 °C 59.8 °F /  15.4 °C 62.6 °F /  17 °C
Humidity: 99 % 87 % 96 %
Wind Speed: 17.0 mph /  27.4 km/h - 4.1 mph /  6.6 km/h
Wind Gust: 37.0 mph /  59.5 km/h - -
Wind:- - SE
Pressure: 29.90 in /  1012.4 hPa 28.70 in /  971.8 hPa -
Precipitation: 1.45 in /  36.83 mm    
Historical Graphs
 
 
Tabular Data for October 29, 2017
Time Temperature Dew Point Pressure Wind Wind Speed Wind Gust Humidity Rainfall Rate (Hourly)
00:04 62.6 °F /  17 °C 60.5 °F /  15.8 °C 29.90 in /  1012.4 hPa SE 0.9 mph /  1.4 km/h 3.5 mph /  5.6 km/h 93 % 0.00 in /  0 mm
00:09 62.6 °F /  17 °C 60.5 °F /  15.8 °C 29.90 in /  1012.4 hPa SE 1.2 mph /  1.9 km/h 3.0 mph /  4.8 km/h 93 % 0.00 in /  0 mm
00:14 62.7 °F /  17.1 °C 60.6 °F /  15.9 °C 29.90 in /  1012.4 hPa SSE 1.7 mph /  2.7 km/h 3.5 mph /  5.6 km/h 93 % 0.00 in /  0 mm
00:19 62.8 °F /  17.1 °C 60.7 °F /  15.9 °C 29.90 in /  1012.4 hPa SE 2.7 mph /  4.3 km/h 5.8 mph /  9.3 km/h 93 % 0.00 in /  0 mm
00:24 62.8 °F /  17.1 °C 60.4 °F /  15.8 °C 29.90 in /  1012.4 hPa SSE 1.2 mph /  1.9 km/h 8.0 mph /  12.9 km/h 92 % 0.00 in /  0 mm
00:29 62.9 °F /  17.2 °C 60.5 °F /  15.8 °C 29.90 in /  1012.4 hPa SSE 2.1 mph /  3.4 km/h 3.5 mph /  5.6 km/h 92 % 0.00 in /  0 mm
00:34 63.0 °F /  17.2 °C 60.6 °F /  15.9 °C 29.90 in /  1012.4 hPa SE 3.3 mph /  5.3 km/h 4.6 mph /  7.4 km/h 92 % 0.00 in /  0 mm
00:39 63.0 °F /  17.2 °C 60.6 °F /  15.9 °C 29.90 in /  1012.4 hPa SSE 1.5 mph /  2.4 km/h 4.6 mph /  7.4 km/h 92 % 0.00 in /  0 mm
00:44 63.1 °F /  17.3 °C 60.7 °F /  15.9 °C 29.90 in /  1012.4 hPa SSE 0.8 mph /  1.3 km/h 6.9 mph /  11.1 km/h 92 % 0.00 in /  0 mm
00:49 63.2 °F /  17.3 °C 60.8 °F /  16 °C 29.90 in /  1012.4 hPa ESE 3.5 mph /  5.6 km/h 4.6 mph /  7.4 km/h 92 % 0.00 in /  0 mm
00:54 63.3 °F /  17.4 °C 60.6 °F /  15.9 °C 29.90 in /  1012.4 hPa SE 3.4 mph /  5.5 km/h 10.4 mph /  16.7 km/h 91 % 0.00 in /  0 mm
01:00 63.4 °F /  17.4 °C 60.7 °F /  15.9 °C 29.90 in /  1012.4 hPa SSE 2.4 mph /  3.9 km/h 11.5 mph /  18.5 km/h 91 % 0.00 in /  0 mm
01:05 63.5 °F /  17.5 °C 60.8 °F /  16 °C 29.90 in /  1012.4 hPa SE 1.4 mph /  2.3 km/h 2.3 mph /  3.7 km/h 91 % 0.00 in /  0 mm
01:10 63.5 °F /  17.5 °C 60.8 °F /  16 °C 29.90 in /  1012.4 hPa SE 0.5 mph /  0.8 km/h 2.3 mph /  3.7 km/h 91 % 0.00 in /  0 mm
01:15 63.5 °F /  17.5 °C 60.8 °F /  16 °C 29.89 in /  1012.1 hPa SE 1.9 mph /  3.1 km/h 4.6 mph /  7.4 km/h 91 % 0.00 in /  0 mm
01:20 63.6 °F /  17.6 °C 60.9 °F /  16.1 °C 29.89 in /  1012.1 hPa SSE 2.3 mph /  3.7 km/h 6.9 mph /  11.1 km/h 91 % 0.00 in /  0 mm
01:25 63.6 °F /  17.6 °C 60.9 °F /  16.1 °C 29.89 in /  1012.1 hPa SSE 4.1 mph /  6.6 km/h 9.2 mph /  14.8 km/h 91 % 0.00 in /  0 mm
01:30 63.7 °F /  17.6 °C 60.7 °F /  15.9 °C 29.89 in /  1012.1 hPa SSE 4.4 mph /  7.1 km/h 10.4 mph /  16.7 km/h 90 % 0.00 in /  0 mm
01:35 63.8 °F /  17.7 °C 60.8 °F /  16 °C 29.89 in /  1012.1 hPa SE 2.0 mph /  3.2 km/h 4.6 mph /  7.4 km/h 90 % 0.00 in /  0 mm
01:40 63.8 °F /  17.7 °C 60.8 °F /  16 °C 29.88 in /  1011.7 hPa SE 5.3 mph /  8.5 km/h 9.2 mph /  14.8 km/h 90 % 0.00 in /  0 mm
01:45 63.9 °F /  17.7 °C 60.9 °F /  16.1 °C 29.88 in /  1011.7 hPa SSE 3.4 mph /  5.5 km/h 8.1 mph /  13 km/h 90 % 0.00 in /  0 mm
01:50 64.0 °F /  17.8 °C 61.0 °F /  16.1 °C 29.88 in /  1011.7 hPa SSE 2.1 mph /  3.4 km/h 5.8 mph /  9.3 km/h 90 % 0.00 in /  0 mm
01:55 64.0 °F /  17.8 °C 61.0 °F /  16.1 °C 29.88 in /  1011.7 hPa SE 3.5 mph /  5.6 km/h 9.0 mph /  14.5 km/h 90 % 0.00 in /  0 mm
02:00 64.1 °F /  17.8 °C 61.1 °F /  16.2 °C 29.87 in /  1011.4 hPa SE 4.7 mph /  7.6 km/h 9.2 mph /  14.8 km/h 90 % 0.00 in /  0 mm
02:05 64.2 °F /  17.9 °C 61.2 °F /  16.2 °C 29.87 in /  1011.4 hPa SSE 3.7 mph /  6 km/h 8.1 mph /  13 km/h 90 % 0.00 in /  0 mm
02:10 64.2 °F /  17.9 °C 61.2 °F /  16.2 °C 29.87 in /  1011.4 hPa SSE 4.0 mph /  6.4 km/h 6.0 mph /  9.7 km/h 90 % 0.00 in /  0 mm
02:15 64.3 °F /  17.9 °C 61.3 °F /  16.3 °C 29.87 in /  1011.4 hPa SE 3.5 mph /  5.6 km/h 9.2 mph /  14.8 km/h 90 % 0.00 in /  0 mm
02:20 64.3 °F /  17.9 °C 61.3 °F /  16.3 °C 29.87 in /  1011.4 hPa SE 2.3 mph /  3.7 km/h 5.8 mph /  9.3 km/h 90 % 0.00 in /  0 mm
02:26 64.4 °F /  18 °C 61.1 °F /  16.2 °C 29.87 in /  1011.4 hPa SSE 3.0 mph /  4.8 km/h 8.0 mph /  12.9 km/h 89 % 0.00 in /  0 mm
02:31 64.5 °F /  18.1 °C 61.2 °F /  16.2 °C 29.87 in /  1011.4 hPa SSE 1.0 mph /  1.6 km/h 6.0 mph /  9.7 km/h 89 % 0.00 in /  0 mm
02:41 64.5 °F /  18.1 °C 61.2 °F /  16.2 °C 29.87 in /  1011.4 hPa SSE 3.0 mph /  4.8 km/h 8.0 mph /  12.9 km/h 89 % 0.00 in /  0 mm
02:46 64.6 °F /  18.1 °C 61.3 °F /  16.3 °C 29.86 in /  1011.1 hPa SSE 1.0 mph /  1.6 km/h 8.0 mph /  12.9 km/h 89 % 0.00 in /  0 mm
02:51 64.7 °F /  18.2 °C 61.4 °F /  16.3 °C 29.86 in /  1011.1 hPa Calm   5.0 mph /  8 km/h 89 % 0.00 in /  0 mm
02:56 64.7 °F /  18.2 °C 61.7 °F /  16.5 °C 29.86 in /  1011.1 hPa South 1.3 mph /  2.1 km/h 3.5 mph /  5.6 km/h 90 % 0.00 in /  0 mm
03:01 64.7 °F /  18.2 °C 61.7 °F /  16.5 °C 29.86 in /  1011.1 hPa SSE 1.7 mph /  2.7 km/h 6.9 mph /  11.1 km/h 90 % 0.00 in /  0 mm
03:06 64.8 °F /  18.2 °C 61.8 °F /  16.6 °C 29.86 in /  1011.1 hPa SSE 3.0 mph /  4.8 km/h 8.0 mph /  12.9 km/h 90 % 0.00 in /  0 mm
03:11 64.8 °F /  18.2 °C 61.8 °F /  16.6 °C 29.86 in /  1011.1 hPa SE 2.3 mph /  3.7 km/h 7.0 mph /  11.3 km/h 90 % 0.00 in /  0 mm
03:16 64.9 °F /  18.3 °C 61.9 °F /  16.6 °C 29.86 in /  1011.1 hPa SSE 1.0 mph /  1.6 km/h 12.0 mph /  19.3 km/h 90 % 0.00 in /  0 mm
03:26 64.8 °F /  18.2 °C 61.5 °F /  16.4 °C 29.86 in /  1011.1 hPa SSE 1.0 mph /  1.6 km/h 9.0 mph /  14.5 km/h 89 % 0.00 in /  0 mm
03:31 64.8 °F /  18.2 °C 61.5 °F /  16.4 °C 29.85 in /  1010.7 hPa SSE 5.0 mph /  8 km/h 9.0 mph /  14.5 km/h 89 % 0.00 in /  0 mm
03:36 64.8 °F /  18.2 °C 61.4 °F /  16.3 °C 29.85 in /  1010.7 hPa South 1.0 mph /  1.6 km/h 6.0 mph /  9.7 km/h 89 % 0.00 in /  0 mm
03:41 64.7 °F /  18.2 °C 61.4 °F /  16.3 °C 29.85 in /  1010.7 hPa South 1.0 mph /  1.6 km/h 7.0 mph /  11.3 km/h 89 % 0.00 in /  0 mm
03:46 64.6 °F /  18.1 °C 61.0 °F /  16.1 °C 29.85 in /  1010.7 hPa SSE 1.0 mph /  1.6 km/h 8.0 mph /  12.9 km/h 88 % 0.00 in /  0 mm
03:51 64.6 °F /  18.1 °C 61.0 °F /  16.1 °C 29.86 in /  1011.1 hPa SSE 1.0 mph /  1.6 km/h 5.0 mph /  8 km/h 88 % 0.00 in /  0 mm
03:56 64.5 °F /  18.1 °C 60.5 °F /  15.8 °C 29.86 in /  1011.1 hPa SSE 5.0 mph /  8 km/h 7.0 mph /  11.3 km/h 87 % 0.00 in /  0 mm
04:01 64.5 °F /  18.1 °C 60.5 °F /  15.8 °C 29.85 in /  1010.7 hPa SSW 0.8 mph /  1.3 km/h 8.1 mph /  13 km/h 87 % 0.00 in /  0 mm
04:06 64.4 °F /  18 °C 60.5 °F /  15.8 °C 29.85 in /  1010.7 hPa South 2.0 mph /  3.2 km/h 8.0 mph /  12.9 km/h 87 % 0.00 in /  0 mm
04:11 64.3 °F /  17.9 °C 60.7 °F /  15.9 °C 29.85 in /  1010.7 hPa SSW 2.7 mph /  4.3 km/h 3.5 mph /  5.6 km/h 88 % 0.00 in /  0 mm
04:16 64.2 °F /  17.9 °C 60.6 °F /  15.9 °C 29.84 in /  1010.4 hPa South 3.0 mph /  4.8 km/h 6.0 mph /  9.7 km/h 88 % 0.00 in /  0 mm
04:21 64.1 °F /  17.8 °C 60.5 °F /  15.8 °C 29.84 in /  1010.4 hPa South 2.0 mph /  3.2 km/h 7.0 mph /  11.3 km/h 88 % 0.00 in /  0 mm
04:26 63.9 °F /  17.7 °C 60.3 °F /  15.7 °C 29.85 in /  1010.7 hPa South 2.0 mph /  3.2 km/h 6.0 mph /  9.7 km/h 88 % 0.00 in /  0 mm
04:31 63.7 °F /  17.6 °C 60.4 °F /  15.8 °C 29.85 in /  1010.7 hPa SSE 2.0 mph /  3.2 km/h 9.0 mph /  14.5 km/h 89 % 0.00 in /  0 mm
04:41 63.4 °F /  17.4 °C 60.1 °F /  15.6 °C 29.84 in /  1010.4 hPa Calm   8.0 mph /  12.9 km/h 89 % 0.00 in /  0 mm
04:42 63.3 °F /  17.4 °C 60.3 °F /  15.7 °C 29.84 in /  1010.4 hPa South 1.1 mph /  1.8 km/h 3.5 mph /  5.6 km/h 90 % 0.00 in /  0 mm
04:48 63.1 °F /  17.3 °C 60.1 °F /  15.6 °C 29.84 in /  1010.4 hPa SW 1.8 mph /  2.9 km/h 3.5 mph /  5.6 km/h 90 % 0.00 in /  0 mm
04:53 63.0 °F /  17.2 °C 60.0 °F /  15.6 °C 29.84 in /  1010.4 hPa South 3.0 mph /  4.8 km/h 3.5 mph /  5.6 km/h 90 % 0.00 in /  0 mm
04:58 62.9 °F /  17.2 °C 59.9 °F /  15.5 °C 29.84 in /  1010.4 hPa SSW 1.5 mph /  2.4 km/h 3.5 mph /  5.6 km/h 90 % 0.00 in /  0 mm
05:03 62.8 °F /  17.1 °C 60.1 °F /  15.6 °C 29.84 in /  1010.4 hPa Calm   2.3 mph /  3.7 km/h 91 % 0.00 in /  0 mm
05:08 62.7 °F /  17.1 °C 60.0 °F /  15.6 °C 29.84 in /  1010.4 hPa SSW 0.5 mph /  0.8 km/h 3.5 mph /  5.6 km/h 91 % 0.00 in /  0 mm
05:13 62.6 °F /  17 °C 59.9 °F /  15.5 °C 29.84 in /  1010.4 hPa Calm   1.2 mph /  1.9 km/h 91 % 0.00 in /  0 mm
05:18 62.5 °F /  16.9 °C 59.8 °F /  15.4 °C 29.84 in /  1010.4 hPa SE 0.2 mph /  0.3 km/h 3.5 mph /  5.6 km/h 91 % 0.00 in /  0 mm
05:23 62.4 °F /  16.9 °C 60.0 °F /  15.6 °C 29.84 in /  1010.4 hPa Calm     92 % 0.00 in /  0 mm
05:28 62.3 °F /  16.8 °C 59.9 °F /  15.5 °C 29.83 in /  1010 hPa SSE 0.4 mph /  0.6 km/h 3.5 mph /  5.6 km/h 92 % 0.00 in /  0 mm
05:33 62.2 °F /  16.8 °C 60.2 °F /  15.7 °C 29.83 in /  1010 hPa SSE 0.3 mph /  0.5 km/h 1.0 mph /  1.6 km/h 93 % 0.00 in /  0 mm
05:38 62.2 °F /  16.8 °C 60.2 °F /  15.7 °C 29.82 in /  1009.7 hPa South 1.9 mph /  3.1 km/h 4.0 mph /  6.4 km/h 93 % 0.01 in /  0.25 mm
05:43 62.1 °F /  16.7 °C 60.1 °F /  15.6 °C 29.82 in /  1009.7 hPa SE 0.4 mph /  0.6 km/h 3.5 mph /  5.6 km/h 93 % 0.01 in /  0.25 mm
05:48 62.0 °F /  16.7 °C 60.0 °F /  15.6 °C 29.81 in /  1009.4 hPa SE 0.8 mph /  1.3 km/h 1.2 mph /  1.9 km/h 93 % 0.02 in /  0.51 mm
05:53 62.0 °F /  16.7 °C 60.0 °F /  15.6 °C 29.81 in /  1009.4 hPa SE 1.8 mph /  2.9 km/h 2.3 mph /  3.7 km/h 93 % 0.02 in /  0.51 mm
05:58 61.9 °F /  16.6 °C 60.2 °F /  15.7 °C 29.80 in /  1009 hPa ESE 1.5 mph /  2.4 km/h 2.3 mph /  3.7 km/h 94 % 0.03 in /  0.76 mm
06:03 61.9 °F /  16.6 °C 60.2 °F /  15.7 °C 29.80 in /  1009 hPa SE 1.9 mph /  3.1 km/h 4.6 mph /  7.4 km/h 94 % 0.03 in /  0.76 mm
06:08 61.8 °F /  16.6 °C 60.1 °F /  15.6 °C 29.81 in /  1009.4 hPa SE 2.0 mph /  3.2 km/h 4.6 mph /  7.4 km/h 94 % 0.03 in /  0.76 mm
06:14 61.8 °F /  16.6 °C 60.4 °F /  15.8 °C 29.80 in /  1009 hPa SE 2.8 mph /  4.5 km/h 11.5 mph /  18.5 km/h 95 % 0.04 in /  1.02 mm
06:19 61.8 °F /  16.6 °C 60.4 °F /  15.8 °C 29.80 in /  1009 hPa ESE 3.1 mph /  5 km/h 9.0 mph /  14.5 km/h 95 % 0.04 in /  1.02 mm
06:24 61.8 °F /  16.6 °C 60.4 °F /  15.8 °C 29.80 in /  1009 hPa SSE 2.2 mph /  3.5 km/h 7.0 mph /  11.3 km/h 95 % 0.05 in /  1.27 mm
06:29 61.8 °F /  16.6 °C 60.4 °F /  15.8 °C 29.80 in /  1009 hPa SE 2.5 mph /  4 km/h 6.9 mph /  11.1 km/h 95 % 0.05 in /  1.27 mm
06:34 61.8 °F /  16.6 °C 60.6 °F /  15.9 °C 29.79 in /  1008.7 hPa SE 3.8 mph /  6.1 km/h 18.4 mph /  29.6 km/h 96 % 0.05 in /  1.27 mm
06:39 61.9 °F /  16.6 °C 60.7 °F /  15.9 °C 29.80 in /  1009 hPa ESE 3.0 mph /  4.8 km/h 15.0 mph /  24.1 km/h 96 % 0.05 in /  1.27 mm
06:44 61.9 °F /  16.6 °C 60.7 °F /  15.9 °C 29.80 in /  1009 hPa SSE 5.4 mph /  8.7 km/h 11.5 mph /  18.5 km/h 96 % 0.05 in /  1.27 mm
06:49 61.9 °F /  16.6 °C 60.7 °F /  15.9 °C 29.80 in /  1009 hPa ESE 5.6 mph /  9 km/h 9.2 mph /  14.8 km/h 96 % 0.04 in /  1.02 mm
06:54 61.9 °F /  16.6 °C 60.7 °F /  15.9 °C 29.79 in /  1008.7 hPa SE 7.3 mph /  11.7 km/h 13.0 mph /  20.9 km/h 96 % 0.05 in /  1.27 mm
06:59 61.9 °F /  16.6 °C 60.7 °F /  15.9 °C 29.79 in /  1008.7 hPa ESE 8.0 mph /  12.9 km/h 12.7 mph /  20.4 km/h 96 % 0.04 in /  1.02 mm
07:04 61.9 °F /  16.6 °C 60.7 °F /  15.9 °C 29.79 in /  1008.7 hPa ESE 6.3 mph /  10.1 km/h 16.1 mph /  25.9 km/h 96 % 0.04 in /  1.02 mm
07:09 62.0 °F /  16.7 °C 60.8 °F /  16 °C 29.79 in /  1008.7 hPa ESE 4.9 mph /  7.9 km/h 15.0 mph /  24.1 km/h 96 % 0.04 in /  1.02 mm
07:14 62.0 °F /  16.7 °C 60.8 °F /  16 °C 29.79 in /  1008.7 hPa SSE 3.8 mph /  6.1 km/h 13.8 mph /  22.2 km/h 96 % 0.04 in /  1.02 mm
07:19 62.1 °F /  16.7 °C 60.9 °F /  16.1 °C 29.80 in /  1009 hPa SE 8.1 mph /  13 km/h 16.1 mph /  25.9 km/h 96 % 0.04 in /  1.02 mm
07:24 62.2 °F /  16.8 °C 61.0 °F /  16.1 °C 29.80 in /  1009 hPa ESE 2.6 mph /  4.2 km/h 9.2 mph /  14.8 km/h 96 % 0.03 in /  0.76 mm
07:29 62.3 °F /  16.8 °C 61.4 °F /  16.3 °C 29.80 in /  1009 hPa SE 4.0 mph /  6.4 km/h 6.9 mph /  11.1 km/h 97 % 0.03 in /  0.76 mm
07:34 62.4 °F /  16.9 °C 61.5 °F /  16.4 °C 29.79 in /  1008.7 hPa SE 4.3 mph /  6.9 km/h 10.4 mph /  16.7 km/h 97 % 0.04 in /  1.02 mm
07:39 62.4 °F /  16.9 °C 61.5 °F /  16.4 °C 29.79 in /  1008.7 hPa ESE 3.2 mph /  5.1 km/h 5.8 mph /  9.3 km/h 97 % 0.03 in /  0.76 mm
07:44 62.4 °F /  16.9 °C 61.5 °F /  16.4 °C 29.80 in /  1009 hPa SE 1.9 mph /  3.1 km/h 5.8 mph /  9.3 km/h 97 % 0.03 in /  0.76 mm
07:50 62.4 °F /  16.9 °C 61.5 °F /  16.4 °C 29.80 in /  1009 hPa SE 3.3 mph /  5.3 km/h 9.2 mph /  14.8 km/h 97 % 0.03 in /  0.76 mm
07:55 62.4 °F /  16.9 °C 61.5 °F /  16.4 °C 29.80 in /  1009 hPa SSE 3.2 mph /  5.1 km/h 9.2 mph /  14.8 km/h 97 % 0.02 in /  0.51 mm
08:00 62.4 °F /  16.9 °C 61.5 °F /  16.4 °C 29.79 in /  1008.7 hPa ESE 3.4 mph /  5.5 km/h 5.8 mph /  9.3 km/h 97 % 0.02 in /  0.51 mm
08:05 62.4 °F /  16.9 °C 61.5 °F /  16.4 °C 29.79 in /  1008.7 hPa ESE 1.7 mph /  2.7 km/h 4.0 mph /  6.4 km/h 97 % 0.03 in /  0.76 mm
08:10 62.4 °F /  16.9 °C 61.5 °F /  16.4 °C 29.78 in /  1008.4 hPa SSE 2.8 mph /  4.5 km/h 9.2 mph /  14.8 km/h 97 % 0.02 in /  0.51 mm
08:15 62.4 °F /  16.9 °C 61.5 °F /  16.4 °C 29.78 in /  1008.4 hPa ESE 1.9 mph /  3.1 km/h 5.8 mph /  9.3 km/h 97 % 0.03 in /  0.76 mm
08:20 62.3 °F /  16.8 °C 61.4 °F /  16.3 °C 29.78 in /  1008.4 hPa SE 3.0 mph /  4.8 km/h 6.9 mph /  11.1 km/h 97 % 0.03 in /  0.76 mm
08:25 62.3 °F /  16.8 °C 61.4 °F /  16.3 °C 29.78 in /  1008.4 hPa SE 2.3 mph /  3.7 km/h 4.6 mph /  7.4 km/h 97 % 0.04 in /  1.02 mm
08:30 62.3 °F /  16.8 °C 61.4 °F /  16.3 °C 29.79 in /  1008.7 hPa SE 4.5 mph /  7.2 km/h 10.4 mph /  16.7 km/h 97 % 0.04 in /  1.02 mm
08:35 62.4 °F /  16.9 °C 61.5 °F /  16.4 °C 29.79 in /  1008.7 hPa SE 3.7 mph /  6 km/h 5.0 mph /  8 km/h 97 % 0.04 in /  1.02 mm
08:40 62.3 °F /  16.8 °C 61.4 °F /  16.3 °C 29.78 in /  1008.4 hPa ESE 4.1 mph /  6.6 km/h 8.1 mph /  13 km/h 97 % 0.05 in /  1.27 mm
08:45 62.3 °F /  16.8 °C 61.4 °F /  16.3 °C 29.78 in /  1008.4 hPa SE 2.1 mph /  3.4 km/h 3.5 mph /  5.6 km/h 97 % 0.05 in /  1.27 mm
08:50 62.3 °F /  16.8 °C 61.4 °F /  16.3 °C 29.78 in /  1008.4 hPa SE 5.3 mph /  8.5 km/h 9.2 mph /  14.8 km/h 97 % 0.06 in /  1.52 mm
08:55 62.4 °F /  16.9 °C 61.5 °F /  16.4 °C 29.77 in /  1008 hPa ESE 2.2 mph /  3.5 km/h 3.5 mph /  5.6 km/h 97 % 0.07 in /  1.78 mm
09:00 62.4 °F /  16.9 °C 61.5 °F /  16.4 °C 29.78 in /  1008.4 hPa SE 0.9 mph /  1.4 km/h 3.5 mph /  5.6 km/h 97 % 0.08 in /  2.03 mm
09:06 62.4 °F /  16.9 °C 61.5 °F /  16.4 °C 29.78 in /  1008.4 hPa SE 1.0 mph /  1.6 km/h 3.5 mph /  5.6 km/h 97 % 0.08 in /  2.03 mm
09:11 62.4 °F /  16.9 °C 61.5 °F /  16.4 °C 29.78 in /  1008.4 hPa SE 1.0 mph /  1.6 km/h 5.0 mph /  8 km/h 97 % 0.00 in /  0 mm
09:16 62.4 °F /  16.9 °C 61.5 °F /  16.4 °C 29.77 in /  1008 hPa SE 1.0 mph /  1.6 km/h 8.0 mph /  12.9 km/h 97 % 0.00 in /  0 mm
09:21 62.4 °F /  16.9 °C 61.5 °F /  16.4 °C 29.77 in /  1008 hPa SE 0.1 mph /  0.2 km/h 2.3 mph /  3.7 km/h 97 % 0.10 in /  2.54 mm
09:26 62.4 °F /  16.9 °C 61.5 °F /  16.4 °C 29.76 in /  1007.7 hPa SE 1.0 mph /  1.6 km/h 5.0 mph /  8 km/h 97 % 0.00 in /  0 mm
09:31 62.5 °F /  16.9 °C 61.6 °F /  16.4 °C 29.76 in /  1007.7 hPa SE 2.0 mph /  3.2 km/h 4.0 mph /  6.4 km/h 97 % 0.00 in /  0 mm
09:36 62.5 °F /  16.9 °C 61.6 °F /  16.4 °C 29.77 in /  1008 hPa SSE 1.0 mph /  1.6 km/h 6.0 mph /  9.7 km/h 97 % 0.00 in /  0 mm
09:41 62.5 °F /  16.9 °C 61.6 °F /  16.4 °C 29.77 in /  1008 hPa SE 3.0 mph /  4.8 km/h 7.0 mph /  11.3 km/h 97 % 0.00 in /  0 mm
09:46 62.5 °F /  16.9 °C 61.6 °F /  16.4 °C 29.77 in /  1008 hPa SE 1.0 mph /  1.6 km/h 4.0 mph /  6.4 km/h 97 % 0.01 in /  0.25 mm
09:51 62.5 °F /  16.9 °C 61.6 °F /  16.4 °C 29.76 in /  1007.7 hPa SE 1.0 mph /  1.6 km/h 5.0 mph /  8 km/h 97 % 0.00 in /  0 mm
09:56 62.5 °F /  16.9 °C 61.7 °F /  16.5 °C 29.76 in /  1007.7 hPa Calm   6.0 mph /  9.7 km/h 97 % 0.00 in /  0 mm
10:01 62.6 °F /  17 °C 61.7 °F /  16.5 °C 29.76 in /  1007.7 hPa ESE 0.8 mph /  1.3 km/h 1.2 mph /  1.9 km/h 97 % 0.08 in /  2.03 mm
10:06 62.6 °F /  17 °C 61.7 °F /  16.5 °C 29.75 in /  1007.3 hPa Calm   1.2 mph /  1.9 km/h 97 % 0.08 in /  2.03 mm
10:11 62.6 °F /  17 °C 61.7 °F /  16.5 °C 29.75 in /  1007.3 hPa SE 0.6 mph /  1 km/h 3.5 mph /  5.6 km/h 97 % 0.09 in /  2.29 mm
10:16 62.6 °F /  17 °C 61.7 °F /  16.5 °C 29.75 in /  1007.3 hPa SSE 0.2 mph /  0.3 km/h 1.2 mph /  1.9 km/h 97 % 0.10 in /  2.54 mm
10:21 62.6 °F /  17 °C 61.7 °F /  16.5 °C 29.75 in /  1007.3 hPa Calm     97 % 0.11 in /  2.79 mm
10:26 62.6 °F /  17 °C 62.0 °F /  16.7 °C 29.75 in /  1007.3 hPa SE 0.3 mph /  0.5 km/h 2.3 mph /  3.7 km/h 98 % 0.13 in /  3.3 mm
10:31 62.6 °F /  17 °C 62.0 °F /  16.7 °C 29.75 in /  1007.3 hPa SE 1.0 mph /  1.6 km/h 4.6 mph /  7.4 km/h 98 % 0.14 in /  3.56 mm
10:36 62.7 °F /  17.1 °C 62.1 °F /  16.7 °C 29.74 in /  1007 hPa Calm   1.2 mph /  1.9 km/h 98 % 0.17 in /  4.32 mm
10:41 62.7 °F /  17.1 °C 62.1 °F /  16.7 °C 29.73 in /  1006.7 hPa Calm     98 % 0.18 in /  4.57 mm
10:46 62.7 °F /  17.1 °C 62.1 °F /  16.7 °C 29.73 in /  1006.7 hPa Calm     98 % 0.19 in /  4.83 mm
10:51 62.7 °F /  17.1 °C 62.1 °F /  16.7 °C 29.72 in /  1006.3 hPa Calm     98 % 0.21 in /  5.33 mm
10:56 62.8 °F /  17.1 °C 62.2 °F /  16.8 °C 29.72 in /  1006.3 hPa Calm     98 % 0.22 in /  5.59 mm
11:01 62.8 °F /  17.1 °C 62.2 °F /  16.8 °C 29.72 in /  1006.3 hPa SE 0.5 mph /  0.8 km/h 2.0 mph /  3.2 km/h 98 % 0.23 in /  5.84 mm
11:06 62.8 °F /  17.1 °C 62.2 °F /  16.8 °C 29.72 in /  1006.3 hPa Calm   1.2 mph /  1.9 km/h 98 % 0.24 in /  6.1 mm
11:12 62.8 °F /  17.1 °C 62.2 °F /  16.8 °C 29.72 in /  1006.3 hPa SE 0.7 mph /  1.1 km/h 2.3 mph /  3.7 km/h 98 % 0.24 in /  6.1 mm
11:17 62.8 °F /  17.1 °C 62.2 °F /  16.8 °C 29.71 in /  1006 hPa Calm   3.5 mph /  5.6 km/h 98 % 0.24 in /  6.1 mm
11:22 62.9 °F /  17.2 °C 62.3 °F /  16.8 °C 29.70 in /  1005.6 hPa SE 1.2 mph /  1.9 km/h 2.3 mph /  3.7 km/h 98 % 0.23 in /  5.84 mm
11:27 62.9 °F /  17.2 °C 62.3 °F /  16.8 °C 29.70 in /  1005.6 hPa Calm     98 % 0.23 in /  5.84 mm
11:32 62.9 °F /  17.2 °C 62.3 °F /  16.8 °C 29.71 in /  1006 hPa SE 1.0 mph /  1.6 km/h 3.5 mph /  5.6 km/h 98 % 0.22 in /  5.59 mm
11:37 63.0 °F /  17.2 °C 62.4 °F /  16.9 °C 29.70 in /  1005.6 hPa SE 0.1 mph /  0.2 km/h 1.2 mph /  1.9 km/h 98 % 0.22 in /  5.59 mm
11:42 63.0 °F /  17.2 °C 62.4 °F /  16.9 °C 29.71 in /  1006 hPa SE 1.0 mph /  1.6 km/h 3.5 mph /  5.6 km/h 98 % 0.21 in /  5.33 mm
11:47 63.1 °F /  17.3 °C 62.5 °F /  16.9 °C 29.70 in /  1005.6 hPa SE 1.6 mph /  2.6 km/h 3.5 mph /  5.6 km/h 98 % 0.20 in /  5.08 mm
11:52 63.1 °F /  17.3 °C 62.5 °F /  16.9 °C 29.69 in /  1005.3 hPa Calm     98 % 0.20 in /  5.08 mm
11:57 63.1 °F /  17.3 °C 62.5 °F /  16.9 °C 29.69 in /  1005.3 hPa SE 1.3 mph /  2.1 km/h 3.5 mph /  5.6 km/h 98 % 0.19 in /  4.83 mm
12:02 63.1 °F /  17.3 °C 62.5 °F /  16.9 °C 29.69 in /  1005.3 hPa SE 2.0 mph /  3.2 km/h 3.5 mph /  5.6 km/h 98 % 0.18 in /  4.57 mm
12:07 63.2 °F /  17.3 °C 62.6 °F /  17 °C 29.68 in /  1005 hPa SSE 2.2 mph /  3.5 km/h 3.0 mph /  4.8 km/h 98 % 0.17 in /  4.32 mm
12:12 63.2 °F /  17.3 °C 62.6 °F /  17 °C 29.68 in /  1005 hPa SE 0.8 mph /  1.3 km/h 3.5 mph /  5.6 km/h 98 % 0.16 in /  4.06 mm
12:16 63.2 °F /  17.3 °C 62.6 °F /  17 °C 29.68 in /  1005 hPa Calm   1.2 mph /  1.9 km/h 98 % 0.15 in /  3.81 mm
12:21 63.2 °F /  17.3 °C 62.6 °F /  17 °C 29.68 in /  1005 hPa Calm     98 % 0.14 in /  3.56 mm
12:26 63.3 °F /  17.4 °C 62.7 °F /  17.1 °C 29.68 in /  1005 hPa SSE 0.9 mph /  1.4 km/h 2.3 mph /  3.7 km/h 98 % 0.13 in /  3.3 mm
12:31 63.2 °F /  17.3 °C 62.6 °F /  17 °C 29.67 in /  1004.6 hPa SE 1.1 mph /  1.8 km/h 4.6 mph /  7.4 km/h 98 % 0.11 in /  2.79 mm
12:36 63.2 °F /  17.3 °C 62.6 °F /  17 °C 29.67 in /  1004.6 hPa SE 2.8 mph /  4.5 km/h 6.9 mph /  11.1 km/h 98 % 0.11 in /  2.79 mm
12:41 63.2 °F /  17.3 °C 62.6 °F /  17 °C 29.66 in /  1004.3 hPa SE 0.2 mph /  0.3 km/h 3.5 mph /  5.6 km/h 98 % 0.09 in /  2.29 mm
12:42 63.2 °F /  17.3 °C 62.6 °F /  17 °C 29.66 in /  1004.3 hPa Calm   3.5 mph /  5.6 km/h 98 % 0.09 in /  2.29 mm
12:47 63.2 °F /  17.3 °C 62.6 °F /  17 °C 29.66 in /  1004.3 hPa SSE 1.6 mph /  2.6 km/h 5.8 mph /  9.3 km/h 98 % 0.09 in /  2.29 mm
12:52 63.2 °F /  17.3 °C 62.6 °F /  17 °C 29.65 in /  1003.9 hPa Calm   1.2 mph /  1.9 km/h 98 % 0.08 in /  2.03 mm
12:57 63.2 °F /  17.3 °C 62.6 °F /  17 °C 29.64 in /  1003.6 hPa SE 0.9 mph /  1.4 km/h 5.8 mph /  9.3 km/h 98 % 0.07 in /  1.78 mm
13:02 63.2 °F /  17.3 °C 62.6 °F /  17 °C 29.64 in /  1003.6 hPa SE 0.2 mph /  0.3 km/h 1.2 mph /  1.9 km/h 98 % 0.07 in /  1.78 mm
13:07 63.2 °F /  17.3 °C 62.6 °F /  17 °C 29.63 in /  1003.3 hPa Calm   1.2 mph /  1.9 km/h 98 % 0.07 in /  1.78 mm
13:12 63.3 °F /  17.4 °C 62.7 °F /  17.1 °C 29.63 in /  1003.3 hPa SE 0.2 mph /  0.3 km/h 1.2 mph /  1.9 km/h 98 % 0.06 in /  1.52 mm
13:17 63.3 °F /  17.4 °C 62.7 °F /  17.1 °C 29.63 in /  1003.3 hPa SE 0.5 mph /  0.8 km/h 2.3 mph /  3.7 km/h 98 % 0.07 in /  1.78 mm
13:22 63.4 °F /  17.4 °C 62.8 °F /  17.1 °C 29.62 in /  1002.9 hPa SE 3.4 mph /  5.5 km/h 5.8 mph /  9.3 km/h 98 % 0.06 in /  1.52 mm
13:27 63.5 °F /  17.5 °C 62.9 °F /  17.2 °C 29.61 in /  1002.6 hPa ESE 2.6 mph /  4.2 km/h 6.9 mph /  11.1 km/h 98 % 0.07 in /  1.78 mm
13:32 63.6 °F /  17.6 °C 63.0 °F /  17.2 °C 29.61 in /  1002.6 hPa SSE 3.2 mph /  5.1 km/h 3.5 mph /  5.6 km/h 98 % 0.07 in /  1.78 mm
13:37 63.8 °F /  17.7 °C 63.2 °F /  17.3 °C 29.61 in /  1002.6 hPa SE 3.1 mph /  5 km/h 6.9 mph /  11.1 km/h 98 % 0.07 in /  1.78 mm
13:42 63.8 °F /  17.7 °C 63.2 °F /  17.3 °C 29.60 in /  1002.3 hPa ESE 5.0 mph /  8 km/h 10.0 mph /  16.1 km/h 98 % 0.08 in /  2.03 mm
13:48 63.9 °F /  17.7 °C 63.3 °F /  17.4 °C 29.61 in /  1002.6 hPa South 6.7 mph /  10.8 km/h 8.1 mph /  13 km/h 98 % 0.07 in /  1.78 mm
13:53 64.0 °F /  17.8 °C 63.4 °F /  17.4 °C 29.61 in /  1002.6 hPa ESE 4.3 mph /  6.9 km/h 10.4 mph /  16.7 km/h 98 % 0.07 in /  1.78 mm
13:58 64.0 °F /  17.8 °C 63.4 °F /  17.4 °C 29.61 in /  1002.6 hPa ESE 5.6 mph /  9 km/h 18.4 mph /  29.6 km/h 98 % 0.08 in /  2.03 mm
14:03 64.0 °F /  17.8 °C 63.4 °F /  17.4 °C 29.63 in /  1003.3 hPa ESE 2.7 mph /  4.3 km/h 11.5 mph /  18.5 km/h 98 % 0.08 in /  2.03 mm
14:08 64.1 °F /  17.8 °C 63.5 °F /  17.5 °C 29.63 in /  1003.3 hPa South 4.4 mph /  7.1 km/h 15.0 mph /  24.1 km/h 98 % 0.08 in /  2.03 mm
14:13 64.1 °F /  17.8 °C 63.5 °F /  17.5 °C 29.60 in /  1002.3 hPa SE 6.2 mph /  10 km/h 15.0 mph /  24.1 km/h 98 % 0.08 in /  2.03 mm
14:18 64.1 °F /  17.8 °C 63.5 °F /  17.5 °C 29.60 in /  1002.3 hPa ESE 10.2 mph /  16.4 km/h 16.1 mph /  25.9 km/h 98 % 0.08 in /  2.03 mm
14:23 64.1 °F /  17.8 °C 63.5 °F /  17.5 °C 29.59 in /  1001.9 hPa SSE 2.3 mph /  3.7 km/h 8.1 mph /  13 km/h 98 % 0.09 in /  2.29 mm
14:28 64.1 °F /  17.8 °C 63.5 °F /  17.5 °C 29.58 in /  1001.6 hPa East 5.8 mph /  9.3 km/h 10.4 mph /  16.7 km/h 98 % 0.09 in /  2.29 mm
14:33 64.1 °F /  17.8 °C 63.5 °F /  17.5 °C 29.57 in /  1001.2 hPa ESE 10.8 mph /  17.4 km/h 23.0 mph /  37 km/h 98 % 0.09 in /  2.29 mm
14:38 64.1 °F /  17.8 °C 63.5 °F /  17.5 °C 29.57 in /  1001.2 hPa SSE 6.4 mph /  10.3 km/h 11.0 mph /  17.7 km/h 98 % 0.09 in /  2.29 mm
14:43 64.2 °F /  17.9 °C 63.6 °F /  17.6 °C 29.56 in /  1000.9 hPa East 5.2 mph /  8.4 km/h 10.0 mph /  16.1 km/h 98 % 0.09 in /  2.29 mm
14:48 64.2 °F /  17.9 °C 63.6 °F /  17.6 °C 29.56 in /  1000.9 hPa ESE 4.5 mph /  7.2 km/h 9.0 mph /  14.5 km/h 98 % 0.08 in /  2.03 mm
14:53 64.3 °F /  17.9 °C 63.7 °F /  17.6 °C 29.56 in /  1000.9 hPa SE 5.1 mph /  8.2 km/h 10.4 mph /  16.7 km/h 98 % 0.09 in /  2.29 mm
14:59 64.3 °F /  17.9 °C 63.7 °F /  17.6 °C 29.55 in /  1000.6 hPa SE 6.8 mph /  10.9 km/h 17.0 mph /  27.4 km/h 98 % 0.08 in /  2.03 mm
15:04 64.4 °F /  18 °C 63.8 °F /  17.7 °C 29.55 in /  1000.6 hPa SE 5.0 mph /  8 km/h 8.1 mph /  13 km/h 98 % 0.08 in /  2.03 mm
15:09 64.5 °F /  18.1 °C 63.9 °F /  17.7 °C 29.54 in /  1000.2 hPa SSE 7.0 mph /  11.3 km/h 13.8 mph /  22.2 km/h 98 % 0.08 in /  2.03 mm
15:14 64.5 °F /  18.1 °C 63.9 °F /  17.7 °C 29.54 in /  1000.2 hPa East 4.0 mph /  6.4 km/h 11.5 mph /  18.5 km/h 98 % 0.08 in /  2.03 mm
15:19 64.5 °F /  18.1 °C 63.9 °F /  17.7 °C 29.54 in /  1000.2 hPa East 3.6 mph /  5.8 km/h 11.5 mph /  18.5 km/h 98 % 0.08 in /  2.03 mm
15:24 64.6 °F /  18.1 °C 64.0 °F /  17.8 °C 29.53 in /  999.9 hPa SSE 6.0 mph /  9.7 km/h 11.5 mph /  18.5 km/h 98 % 0.08 in /  2.03 mm
15:29 64.6 °F /  18.1 °C 64.0 °F /  17.8 °C 29.53 in /  999.9 hPa SE 6.5 mph /  10.5 km/h 11.5 mph /  18.5 km/h 98 % 0.08 in /  2.03 mm
15:34 64.6 °F /  18.1 °C 64.0 °F /  17.8 °C 29.53 in /  999.9 hPa SE 4.3 mph /  6.9 km/h 8.1 mph /  13 km/h 98 % 0.07 in /  1.78 mm
15:39 64.6 °F /  18.1 °C 64.0 °F /  17.8 °C 29.53 in /  999.9 hPa ESE 4.8 mph /  7.7 km/h 9.2 mph /  14.8 km/h 98 % 0.08 in /  2.03 mm
15:44 64.6 °F /  18.1 °C 64.0 °F /  17.8 °C 29.52 in /  999.5 hPa SE 9.0 mph /  14.5 km/h 18.4 mph /  29.6 km/h 98 % 0.08 in /  2.03 mm
15:49 64.5 °F /  18.1 °C 63.9 °F /  17.7 °C 29.52 in /  999.5 hPa SE 9.0 mph /  14.5 km/h 16.1 mph /  25.9 km/h 98 % 0.08 in /  2.03 mm
15:54 64.5 °F /  18.1 °C 63.9 °F /  17.7 °C 29.52 in /  999.5 hPa ESE 5.7 mph /  9.2 km/h 11.5 mph /  18.5 km/h 98 % 0.08 in /  2.03 mm
15:59 64.5 °F /  18.1 °C 63.9 °F /  17.7 °C 29.51 in /  999.2 hPa ESE 2.9 mph /  4.7 km/h 10.4 mph /  16.7 km/h 98 % 0.09 in /  2.29 mm
16:04 64.5 °F /  18.1 °C 63.9 °F /  17.7 °C 29.52 in /  999.5 hPa ESE 5.4 mph /  8.7 km/h 10.4 mph /  16.7 km/h 98 % 0.08 in /  2.03 mm
16:10 64.5 °F /  18.1 °C 63.9 °F /  17.7 °C 29.52 in /  999.5 hPa East 6.6 mph /  10.6 km/h 16.1 mph /  25.9 km/h 98 % 0.08 in /  2.03 mm
16:15 64.5 °F /  18.1 °C 63.9 °F /  17.7 °C 29.51 in /  999.2 hPa SE 4.8 mph /  7.7 km/h 14.0 mph /  22.5 km/h 98 % 0.07 in /  1.78 mm
16:20 64.5 °F /  18.1 °C 63.9 °F /  17.7 °C 29.51 in /  999.2 hPa SSE 4.9 mph /  7.9 km/h 11.5 mph /  18.5 km/h 98 % 0.08 in /  2.03 mm
16:25 64.5 °F /  18.1 °C 63.9 °F /  17.7 °C 29.50 in /  998.9 hPa SSE 5.7 mph /  9.2 km/h 11.5 mph /  18.5 km/h 98 % 0.08 in /  2.03 mm
16:30 64.5 °F /  18.1 °C 63.9 °F /  17.7 °C 29.50 in /  998.9 hPa ESE 7.0 mph /  11.3 km/h 11.5 mph /  18.5 km/h 98 % 0.07 in /  1.78 mm
16:35 64.6 °F /  18.1 °C 64.0 °F /  17.8 °C 29.50 in /  998.9 hPa SSE 9.4 mph /  15.1 km/h 18.0 mph /  29 km/h 98 % 0.07 in /  1.78 mm
16:40 64.6 °F /  18.1 °C 64.0 °F /  17.8 °C 29.49 in /  998.5 hPa SE 5.9 mph /  9.5 km/h 11.5 mph /  18.5 km/h 98 % 0.08 in /  2.03 mm
16:45 64.6 °F /  18.1 °C 64.0 °F /  17.8 °C 29.49 in /  998.5 hPa SE 4.7 mph /  7.6 km/h 13.0 mph /  20.9 km/h 98 % 0.07 in /  1.78 mm
16:50 64.7 °F /  18.2 °C 64.1 °F /  17.8 °C 29.49 in /  998.5 hPa ESE 4.5 mph /  7.2 km/h 12.7 mph /  20.4 km/h 98 % 0.08 in /  2.03 mm
16:55 64.7 °F /  18.2 °C 64.1 °F /  17.8 °C 29.48 in /  998.2 hPa SE 7.6 mph /  12.2 km/h 11.5 mph /  18.5 km/h 98 % 0.07 in /  1.78 mm
17:00 64.7 °F /  18.2 °C 64.1 °F /  17.8 °C 29.48 in /  998.2 hPa SSE 2.9 mph /  4.7 km/h 9.2 mph /  14.8 km/h 98 % 0.07 in /  1.78 mm
17:05 64.7 °F /  18.2 °C 64.1 °F /  17.8 °C 29.48 in /  998.2 hPa ESE 6.1 mph /  9.8 km/h 9.0 mph /  14.5 km/h 98 % 0.08 in /  2.03 mm
17:10 64.7 °F /  18.2 °C 64.1 °F /  17.8 °C 29.48 in /  998.2 hPa South 8.8 mph /  14.2 km/h 13.8 mph /  22.2 km/h 98 % 0.07 in /  1.78 mm
17:15 64.7 °F /  18.2 °C 64.1 °F /  17.8 °C 29.47 in /  997.9 hPa ESE 6.3 mph /  10.1 km/h 9.2 mph /  14.8 km/h 98 % 0.07 in /  1.78 mm
17:21 64.7 °F /  18.2 °C 64.1 °F /  17.8 °C 29.47 in /  997.9 hPa SE 5.0 mph /  8 km/h 12.0 mph /  19.3 km/h 98 % 0.00 in /  0 mm
17:26 64.7 °F /  18.2 °C 64.1 °F /  17.8 °C 29.47 in /  997.9 hPa SE 6.0 mph /  9.7 km/h 12.0 mph /  19.3 km/h 98 % 0.00 in /  0 mm
17:31 64.7 °F /  18.2 °C 64.1 °F /  17.8 °C 29.47 in /  997.9 hPa ESE 3.0 mph /  4.8 km/h 13.0 mph /  20.9 km/h 98 % 0.00 in /  0 mm
17:36 64.7 °F /  18.2 °C 64.1 °F /  17.8 °C 29.46 in /  997.5 hPa ESE 7.0 mph /  11.3 km/h 12.0 mph /  19.3 km/h 98 % 0.00 in /  0 mm
17:40 64.6 °F /  18.1 °C 64.0 °F /  17.8 °C 29.46 in /  997.5 hPa ESE 5.7 mph /  9.2 km/h 7.0 mph /  11.3 km/h 98 % 0.07 in /  1.78 mm
17:46 64.6 °F /  18.1 °C 64.0 °F /  17.8 °C 29.45 in /  997.2 hPa SE 6.0 mph /  9.7 km/h 17.0 mph /  27.4 km/h 98 % 0.00 in /  0 mm
17:51 64.6 °F /  18.1 °C 64.0 °F /  17.8 °C 29.44 in /  996.8 hPa SE 7.0 mph /  11.3 km/h 12.0 mph /  19.3 km/h 98 % 0.00 in /  0 mm
17:56 64.6 °F /  18.1 °C 64.0 °F /  17.8 °C 29.44 in /  996.8 hPa SE 5.0 mph /  8 km/h 12.0 mph /  19.3 km/h 98 % 0.00 in /  0 mm
18:01 64.7 °F /  18.2 °C 64.1 °F /  17.8 °C 29.44 in /  996.8 hPa ESE 9.7 mph /  15.6 km/h 19.6 mph /  31.5 km/h 98 % 0.07 in /  1.78 mm
18:06 64.8 °F /  18.2 °C 64.2 °F /  17.9 °C 29.43 in /  996.5 hPa SE 6.1 mph /  9.8 km/h 13.0 mph /  20.9 km/h 98 % 0.06 in /  1.52 mm
18:11 64.9 °F /  18.3 °C 64.3 °F /  17.9 °C 29.43 in /  996.5 hPa SSE 7.0 mph /  11.3 km/h 19.0 mph /  30.6 km/h 98 % 0.07 in /  1.78 mm
18:16 65.0 °F /  18.3 °C 64.4 °F /  18 °C 29.43 in /  996.5 hPa SSE 6.7 mph /  10.8 km/h 11.5 mph /  18.5 km/h 98 % 0.06 in /  1.52 mm
18:21 65.0 °F /  18.3 °C 64.4 °F /  18 °C 29.43 in /  996.5 hPa ESE 6.1 mph /  9.8 km/h 11.5 mph /  18.5 km/h 98 % 0.07 in /  1.78 mm
18:26 65.0 °F /  18.3 °C 64.4 °F /  18 °C 29.42 in /  996.2 hPa SE 3.7 mph /  6 km/h 9.2 mph /  14.8 km/h 98 % 0.07 in /  1.78 mm
18:31 65.1 °F /  18.4 °C 64.5 °F /  18.1 °C 29.41 in /  995.8 hPa ESE 8.8 mph /  14.2 km/h 16.1 mph /  25.9 km/h 98 % 0.06 in /  1.52 mm
18:36 65.1 °F /  18.4 °C 64.5 °F /  18.1 °C 29.41 in /  995.8 hPa SE 8.0 mph /  12.9 km/h 19.6 mph /  31.5 km/h 98 % 0.07 in /  1.78 mm
18:41 65.1 °F /  18.4 °C 64.5 °F /  18.1 °C 29.41 in /  995.8 hPa ESE 2.9 mph /  4.7 km/h 5.8 mph /  9.3 km/h 98 % 0.06 in /  1.52 mm
18:46 65.2 °F /  18.4 °C 64.6 °F /  18.1 °C 29.40 in /  995.5 hPa SE 6.4 mph /  10.3 km/h 11.5 mph /  18.5 km/h 98 % 0.07 in /  1.78 mm
18:51 65.2 °F /  18.4 °C 64.6 °F /  18.1 °C 29.40 in /  995.5 hPa East 9.1 mph /  14.6 km/h 12.7 mph /  20.4 km/h 98 % 0.06 in /  1.52 mm
18:56 65.2 °F /  18.4 °C 64.6 °F /  18.1 °C 29.40 in /  995.5 hPa SE 5.4 mph /  8.7 km/h 8.1 mph /  13 km/h 98 % 0.07 in /  1.78 mm
19:01 65.1 °F /  18.4 °C 64.5 °F /  18.1 °C 29.39 in /  995.1 hPa SE 10.8 mph /  17.4 km/h 11.5 mph /  18.5 km/h 98 % 0.06 in /  1.52 mm
19:06 65.1 °F /  18.4 °C 64.5 °F /  18.1 °C 29.38 in /  994.8 hPa SSE 9.3 mph /  15 km/h 18.0 mph /  29 km/h 98 % 0.07 in /  1.78 mm
19:12 65.0 °F /  18.3 °C 64.4 °F /  18 °C 29.38 in /  994.8 hPa ESE 5.1 mph /  8.2 km/h 11.5 mph /  18.5 km/h 98 % 0.06 in /  1.52 mm
19:17 65.0 °F /  18.3 °C 64.4 °F /  18 °C 29.37 in /  994.5 hPa SE 5.3 mph /  8.5 km/h 13.8 mph /  22.2 km/h 98 % 0.06 in /  1.52 mm
19:22 65.0 °F /  18.3 °C 64.4 °F /  18 °C 29.36 in /  994.1 hPa SSE 2.7 mph /  4.3 km/h 11.5 mph /  18.5 km/h 98 % 0.06 in /  1.52 mm
19:27 65.0 °F /  18.3 °C 64.4 °F /  18 °C 29.35 in /  993.8 hPa SSE 5.3 mph /  8.5 km/h 10.4 mph /  16.7 km/h 98 % 0.05 in /  1.27 mm
19:32 65.1 °F /  18.4 °C 64.5 °F /  18.1 °C 29.34 in /  993.5 hPa ESE 7.8 mph /  12.6 km/h 16.1 mph /  25.9 km/h 98 % 0.06 in /  1.52 mm
19:37 65.2 °F /  18.4 °C 64.6 °F /  18.1 °C 29.34 in /  993.5 hPa ESE 4.1 mph /  6.6 km/h 10.4 mph /  16.7 km/h 98 % 0.05 in /  1.27 mm
19:42 65.3 °F /  18.5 °C 64.7 °F /  18.2 °C 29.33 in /  993.1 hPa East 5.9 mph /  9.5 km/h 13.8 mph /  22.2 km/h 98 % 0.06 in /  1.52 mm
19:47 65.3 °F /  18.5 °C 64.7 °F /  18.2 °C 29.32 in /  992.8 hPa East 7.6 mph /  12.2 km/h 15.0 mph /  24.1 km/h 98 % 0.05 in /  1.27 mm
19:52 65.2 °F /  18.4 °C 64.6 °F /  18.1 °C 29.31 in /  992.4 hPa ESE 6.2 mph /  10 km/h 12.7 mph /  20.4 km/h 98 % 0.06 in /  1.52 mm
19:57 65.1 °F /  18.4 °C 64.5 °F /  18.1 °C 29.31 in /  992.4 hPa SE 9.7 mph /  15.6 km/h 19.6 mph /  31.5 km/h 98 % 0.05 in /  1.27 mm
20:02 64.9 °F /  18.3 °C 64.3 °F /  17.9 °C 29.30 in /  992.1 hPa SE 5.5 mph /  8.9 km/h 8.1 mph /  13 km/h 98 % 0.06 in /  1.52 mm
20:07 64.9 °F /  18.3 °C 64.3 °F /  17.9 °C 29.29 in /  991.8 hPa ESE 4.5 mph /  7.2 km/h 8.1 mph /  13 km/h 98 % 0.05 in /  1.27 mm
20:12 64.9 °F /  18.3 °C 64.3 °F /  17.9 °C 29.28 in /  991.4 hPa ESE 6.6 mph /  10.6 km/h 13.0 mph /  20.9 km/h 98 % 0.06 in /  1.52 mm
20:17 64.9 °F /  18.3 °C 64.3 °F /  17.9 °C 29.27 in /  991.1 hPa East 7.1 mph /  11.4 km/h 10.4 mph /  16.7 km/h 98 % 0.06 in /  1.52 mm
20:22 64.8 °F /  18.2 °C 64.2 °F /  17.9 °C 29.25 in /  990.4 hPa East 6.0 mph /  9.7 km/h 12.0 mph /  19.3 km/h 98 % 0.06 in /  1.52 mm
20:28 64.7 °F /  18.2 °C 64.1 °F /  17.8 °C 29.24 in /  990.1 hPa East 4.1 mph /  6.6 km/h 6.9 mph /  11.1 km/h 98 % 0.06 in /  1.52 mm
20:33 64.7 °F /  18.2 °C 64.1 °F /  17.8 °C 29.24 in /  990.1 hPa ESE 3.8 mph /  6.1 km/h 7.0 mph /  11.3 km/h 98 % 0.06 in /  1.52 mm
20:38 64.6 °F /  18.1 °C 64.0 °F /  17.8 °C 29.22 in /  989.4 hPa East 3.2 mph /  5.1 km/h 7.0 mph /  11.3 km/h 98 % 0.05 in /  1.27 mm
20:43 64.5 °F /  18.1 °C 63.9 °F /  17.7 °C 29.21 in /  989.1 hPa East 2.9 mph /  4.7 km/h 5.0 mph /  8 km/h 98 % 0.05 in /  1.27 mm
20:48 64.4 °F /  18 °C 63.8 °F /  17.7 °C 29.20 in /  988.7 hPa East 3.2 mph /  5.1 km/h 5.0 mph /  8 km/h 98 % 0.06 in /  1.52 mm
20:53 64.4 °F /  18 °C 63.8 °F /  17.7 °C 29.20 in /  988.7 hPa ENE 3.5 mph /  5.6 km/h 3.5 mph /  5.6 km/h 98 % 0.05 in /  1.27 mm
20:58 64.5 °F /  18.1 °C 63.9 °F /  17.7 °C 29.18 in /  988 hPa East 5.8 mph /  9.3 km/h 8.0 mph /  12.9 km/h 98 % 0.06 in /  1.52 mm
21:03 64.4 °F /  18 °C 63.8 °F /  17.7 °C 29.17 in /  987.7 hPa East 6.4 mph /  10.3 km/h 19.0 mph /  30.6 km/h 98 % 0.05 in /  1.27 mm
21:08 64.2 °F /  17.9 °C 63.6 °F /  17.6 °C 29.15 in /  987 hPa East 8.4 mph /  13.5 km/h 10.4 mph /  16.7 km/h 98 % 0.06 in /  1.52 mm
21:13 63.9 °F /  17.7 °C 63.3 °F /  17.4 °C 29.13 in /  986.3 hPa East 9.3 mph /  15 km/h 11.5 mph /  18.5 km/h 98 % 0.05 in /  1.27 mm
21:18 63.7 °F /  17.6 °C 63.1 °F /  17.3 °C 29.13 in /  986.3 hPa East 6.6 mph /  10.6 km/h 8.1 mph /  13 km/h 98 % 0.05 in /  1.27 mm
21:23 63.6 °F /  17.6 °C 63.0 °F /  17.2 °C 29.12 in /  986 hPa East 7.0 mph /  11.3 km/h 9.2 mph /  14.8 km/h 98 % 0.05 in /  1.27 mm
21:28 63.5 °F /  17.5 °C 62.9 °F /  17.2 °C 29.11 in /  985.7 hPa ENE 6.7 mph /  10.8 km/h 10.4 mph /  16.7 km/h 98 % 0.05 in /  1.27 mm
21:33 63.6 °F /  17.6 °C 63.0 °F /  17.2 °C 29.11 in /  985.7 hPa ESE 4.9 mph /  7.9 km/h 8.1 mph /  13 km/h 98 % 0.05 in /  1.27 mm
21:38 63.8 °F /  17.7 °C 63.2 °F /  17.3 °C 29.09 in /  985 hPa East 3.5 mph /  5.6 km/h 6.0 mph /  9.7 km/h 98 % 0.05 in /  1.27 mm
21:39 63.8 °F /  17.7 °C 63.2 °F /  17.3 °C 29.09 in /  985 hPa ESE 3.8 mph /  6.1 km/h 5.0 mph /  8 km/h 98 % 0.05 in /  1.27 mm
21:44 64.2 °F /  17.9 °C 63.6 °F /  17.6 °C 29.08 in /  984.6 hPa ESE 8.4 mph /  13.5 km/h 13.8 mph /  22.2 km/h 98 % 0.05 in /  1.27 mm
21:49 64.5 °F /  18.1 °C 63.9 °F /  17.7 °C 29.06 in /  984 hPa ESE 3.7 mph /  6 km/h 16.1 mph /  25.9 km/h 98 % 0.05 in /  1.27 mm
21:54 64.9 °F /  18.3 °C 64.3 °F /  17.9 °C 29.06 in /  984 hPa ESE 7.5 mph /  12.1 km/h 15.0 mph /  24.1 km/h 98 % 0.06 in /  1.52 mm
21:59 65.3 °F /  18.5 °C 64.7 °F /  18.2 °C 29.05 in /  983.6 hPa SSE 5.9 mph /  9.5 km/h 11.5 mph /  18.5 km/h 98 % 0.05 in /  1.27 mm
22:04 65.7 °F /  18.7 °C 65.4 °F /  18.6 °C 29.04 in /  983.3 hPa ESE 9.3 mph /  15 km/h 19.6 mph /  31.5 km/h 99 % 0.06 in /  1.52 mm
22:10 66.1 °F /  18.9 °C 65.8 °F /  18.8 °C 29.03 in /  983 hPa SE 10.6 mph /  17.1 km/h 25.3 mph /  40.7 km/h 99 % 0.05 in /  1.27 mm
22:15 66.3 °F /  19.1 °C 66.0 °F /  18.9 °C 29.01 in /  982.3 hPa South 11.7 mph /  18.8 km/h 27.6 mph /  44.4 km/h 99 % 0.06 in /  1.52 mm
22:20 66.6 °F /  19.2 °C 66.0 °F /  18.9 °C 29.00 in /  981.9 hPa ESE 10.8 mph /  17.4 km/h 19.6 mph /  31.5 km/h 98 % 0.05 in /  1.27 mm
22:25 66.8 °F /  19.3 °C 66.5 °F /  19.2 °C 29.00 in /  981.9 hPa NE 14.6 mph /  23.5 km/h 26.5 mph /  42.6 km/h 99 % 0.05 in /  1.27 mm
22:30 67.0 °F /  19.4 °C 66.4 °F /  19.1 °C 29.00 in /  981.9 hPa SE 14.7 mph /  23.7 km/h 23.0 mph /  37 km/h 98 % 0.06 in /  1.52 mm
22:36 67.2 °F /  19.6 °C 66.7 °F /  19.3 °C 28.99 in /  981.6 hPa SE 15.0 mph /  24.1 km/h 37.0 mph /  59.5 km/h 98 % 0.00 in /  0 mm
22:40 67.4 °F /  19.7 °C 67.1 °F /  19.5 °C 28.97 in /  980.9 hPa SE 12.0 mph /  19.3 km/h 25.0 mph /  40.2 km/h 99 % 0.00 in /  0 mm
22:45 67.5 °F /  19.7 °C 66.9 °F /  19.4 °C 28.96 in /  980.6 hPa SE 15.0 mph /  24.1 km/h 25.0 mph /  40.2 km/h 98 % 0.00 in /  0 mm
22:51 67.6 °F /  19.8 °C 67.0 °F /  19.4 °C 28.95 in /  980.2 hPa SE 15.0 mph /  24.1 km/h 31.0 mph /  49.9 km/h 98 % 0.00 in /  0 mm
22:56 67.6 °F /  19.8 °C 67.0 °F /  19.4 °C 28.95 in /  980.2 hPa SSE 13.0 mph /  20.9 km/h 24.0 mph /  38.6 km/h 98 % 0.00 in /  0 mm
23:01 67.5 °F /  19.7 °C 66.9 °F /  19.4 °C 28.96 in /  980.6 hPa South 12.6 mph /  20.3 km/h 34.5 mph /  55.5 km/h 98 % 0.06 in /  1.52 mm
23:06 67.4 °F /  19.7 °C 66.8 °F /  19.3 °C 29.01 in /  982.3 hPa SE 12.8 mph /  20.6 km/h 32.2 mph /  51.8 km/h 98 % 0.05 in /  1.27 mm
23:11 67.3 °F /  19.6 °C 66.4 °F /  19.1 °C 28.96 in /  980.6 hPa SSE 12.4 mph /  20 km/h 21.9 mph /  35.2 km/h 97 % 0.05 in /  1.27 mm
23:16 67.1 °F /  19.5 °C 66.2 °F /  19 °C 28.97 in /  980.9 hPa SE 17.0 mph /  27.4 km/h 33.4 mph /  53.8 km/h 97 % 0.05 in /  1.27 mm
23:21 66.7 °F /  19.3 °C 65.5 °F /  18.6 °C 28.94 in /  979.9 hPa South 9.8 mph /  15.8 km/h 18.4 mph /  29.6 km/h 96 % 0.05 in /  1.27 mm
23:24 66.6 °F /  19.2 °C 65.4 °F /  18.6 °C 28.70 in /  971.8 hPa SSE 14.3 mph /  23 km/h 21.9 mph /  35.2 km/h 96 % 0.06 in /  1.52 mm
23:29 66.3 °F /  19.1 °C 65.1 °F /  18.4 °C 28.92 in /  979.2 hPa SE 15.3 mph /  24.6 km/h 28.8 mph /  46.3 km/h 96 % 0.05 in /  1.27 mm
23:30 66.3 °F /  19.1 °C 65.1 °F /  18.4 °C 28.92 in /  979.2 hPa SSE 9.1 mph /  14.6 km/h 19.6 mph /  31.5 km/h 96 % 0.05 in /  1.27 mm
23:35 66.1 °F /  18.9 °C 64.9 °F /  18.3 °C 28.92 in /  979.2 hPa ESE 6.9 mph /  11.1 km/h 16.1 mph /  25.9 km/h 96 % 0.06 in /  1.52 mm
23:40 66.0 °F /  18.9 °C 64.8 °F /  18.2 °C 28.93 in /  979.6 hPa SSE 5.1 mph /  8.2 km/h 10.4 mph /  16.7 km/h 96 % 0.05 in /  1.27 mm
23:45 66.0 °F /  18.9 °C 64.8 °F /  18.2 °C 28.93 in /  979.6 hPa SSE 2.9 mph /  4.7 km/h 5.8 mph /  9.3 km/h 96 % 0.06 in /  1.52 mm
23:50 65.9 °F /  18.8 °C 64.7 °F /  18.2 °C 28.99 in /  981.6 hPa South 3.0 mph /  4.8 km/h 8.0 mph /  12.9 km/h 96 % 0.00 in /  0 mm
23:55 65.8 °F /  18.8 °C 64.6 °F /  18.1 °C 28.99 in /  981.6 hPa SSW 4.0 mph /  6.4 km/h 10.4 mph /  16.7 km/h 96 % 0.06 in /  1.52 mm
Crab Meadow Weather
Compliments of Weather Underground - 3 mb

Script developed by  Jim McMurry - jmcmurry@mwt.net Adapted for the template by  Wim van der Kuil - Leuven-Template.eu

Extremes: The most widespread U.S. cold wave was in February of 1899. It was so cold that the Mississippi River froze over its entire length, with ice as thick as two inches even in New Orleans.